TimeHST,TemperatureF,Dew PointF,Humidity,Sea Level PressureIn,VisibilityMPH,Wind Direction,Wind SpeedMPH,Gust SpeedMPH,PrecipitationIn,Events,Conditions,WindDirDegrees,DateUTC
12:53 AM,73.0,66.0,79,29.93,10.0,Calm,Calm,-,N/A,,Scattered Clouds,0,2013-11-07 10:53:00
1:53 AM,72.0,66.9,84,29.91,10.0,North,3.5,-,N/A,,Partly Cloudy,10,2013-11-07 11:53:00
2:53 AM,71.1,66.0,84,29.90,10.0,NNW,3.5,-,N/A,,Partly Cloudy,330,2013-11-07 12:53:00
3:53 AM,71.1,66.0,84,29.90,10.0,NNW,5.8,-,N/A,,Partly Cloudy,330,2013-11-07 13:53:00
4:53 AM,70.0,66.0,87,29.90,10.0,Calm,Calm,-,N/A,,Scattered Clouds,0,2013-11-07 14:53:00
5:53 AM,70.0,66.0,87,29.93,10.0,North,6.9,-,N/A,,Partly Cloudy,350,2013-11-07 15:53:00
6:53 AM,70.0,66.0,87,29.95,10.0,Calm,Calm,-,N/A,,Scattered Clouds,0,2013-11-07 16:53:00
7:53 AM,73.9,66.9,79,29.96,10.0,NNW,4.6,-,N/A,,Scattered Clouds,340,2013-11-07 17:53:00
8:53 AM,79.0,66.9,66,29.97,10.0,Calm,Calm,-,N/A,,Mostly Cloudy,0,2013-11-07 18:53:00
9:53 AM,80.1,66.9,64,29.98,10.0,East,5.8,-,N/A,,Mostly Cloudy,80,2013-11-07 19:53:00
10:53 AM,82.0,68.0,62,29.96,10.0,South,6.9,-,N/A,,Mostly Cloudy,180,2013-11-07 20:53:00
11:53 AM,84.0,66.9,56,29.94,10.0,South,10.4,-,N/A,,Mostly Cloudy,180,2013-11-07 21:53:00
12:53 PM,84.0,68.0,58,29.93,10.0,South,8.1,-,N/A,,Mostly Cloudy,180,2013-11-07 22:53:00
1:53 PM,84.0,70.0,63,29.90,10.0,SE,13.8,-,N/A,,Mostly Cloudy,140,2013-11-07 23:53:00
2:53 PM,84.0,66.9,56,29.89,10.0,Variable,5.8,-,N/A,,Mostly Cloudy,0,2013-11-08 00:53:00
3:53 PM,82.9,66.9,58,29.90,10.0,North,6.9,-,N/A,,Mostly Cloudy,10,2013-11-08 01:53:00
4:53 PM,81.0,69.1,67,29.92,10.0,ENE,8.1,-,0.02,,Mostly Cloudy,70,2013-11-08 02:53:00
5:53 PM,79.0,69.1,72,29.94,10.0,ENE,9.2,-,0.00,,Scattered Clouds,60,2013-11-08 03:53:00
6:53 PM,78.1,68.0,71,29.96,10.0,ENE,4.6,-,N/A,,Scattered Clouds,60,2013-11-08 04:53:00
7:53 PM,78.1,69.1,74,29.97,10.0,NE,9.2,-,N/A,,Partly Cloudy,50,2013-11-08 05:53:00
8:53 PM,77.0,68.0,74,29.99,10.0,ENE,4.6,-,N/A,,Partly Cloudy,60,2013-11-08 06:53:00
9:53 PM,78.1,69.1,74,30.00,10.0,East,6.9,-,N/A,,Partly Cloudy,80,2013-11-08 07:53:00
10:53 PM,78.1,69.1,74,29.99,10.0,Variable,3.5,-,N/A,,Partly Cloudy,0,2013-11-08 08:53:00
11:53 PM,77.0,69.1,76,29.98,10.0,NE,6.9,-,N/A,,Partly Cloudy,50,2013-11-08 09:53:00